^^
Meteo Knjazevac Station Historical Data
Daily Summary for January 17, 2022 Units:  English    Metric   Both
Daily Weekly Monthly Yearly Custom
  High: Low: Average:
Temperature: 46.8 °F 27.9 °F 37.4 °F
Dew Point: 36.9 °F 24 °F 30.4 °F
Humidity: 94% 60% 77%
Wind Speed: 10mph 0mph 4.8mph
Wind Gust: 21mph - -
Wind- - SW
Pressure: 30.33 in 30.12 in -
Precipitation: 0.04 in    
Historical Graphs
 
 
Tabular Data for January 17, 2022
Time Temperature Dew Point Pressure Wind Wind Speed Wind Gust Humidity Rainfall Rate (Hourly) solar Conditions
00:00 28.2 °F 24.6 °F 30.23 in NNW 1 mph 2 mph 86% 0.00 in 0 W/m2
00:10 28.2 °F 24.6 °F 30.23 in North 3 mph 6 mph 86% 0.00 in 0 W/m2
00:20 28.2 °F 24.6 °F 30.23 in NNW 2 mph 4 mph 86% 0.00 in 0 W/m2
00:30 28 °F 24.4 °F 30.23 in NNW 1 mph 4 mph 86% 0.00 in 0 W/m2
00:40 27.9 °F 24.2 °F 30.23 in Calm   3 mph 86% 0.00 in 0 W/m2
00:50 27.9 °F 24.2 °F 30.23 in NW 1 mph 4 mph 86% 0.00 in 0 W/m2
01:00 28 °F 24.4 °F 30.23 in NW 1 mph 4 mph 86% 0.00 in 0 W/m2
01:10 28.2 °F 24.3 °F 30.24 in WNW 2 mph 4 mph 85% 0.00 in 0 W/m2
01:20 28.4 °F 24.5 °F 30.24 in West 1 mph 4 mph 85% 0.00 in 0 W/m2
01:30 28.4 °F 24.5 °F 30.24 in Calm   3 mph 85% 0.00 in 0 W/m2
01:40 28.8 °F 24.8 °F 30.24 in SSE 1 mph 6 mph 85% 0.00 in 0 W/m2
01:50 29.1 °F 25.2 °F 30.24 in ENE 3 mph 5 mph 85% 0.00 in 0 W/m2
02:00 29.6 °F 25.4 °F 30.24 in ENE 1 mph 8 mph 84% 0.00 in 0 W/m2
02:10 29.8 °F 25.3 °F 30.24 in SE 2 mph 6 mph 83% 0.00 in 0 W/m2
02:20 30 °F 25.5 °F 30.24 in SSE 1 mph 5 mph 83% 0.00 in 0 W/m2
02:30 29.7 °F 25.1 °F 30.24 in NW 1 mph 3 mph 83% 0.00 in 0 W/m2
02:40 29.7 °F 25.1 °F 30.24 in SSW 1 mph 5 mph 83% 0.00 in 0 W/m2
02:50 29.7 °F 25.1 °F 30.25 in West 1 mph 4 mph 83% 0.00 in 0 W/m2
03:00 29.5 °F 25 °F 30.25 in SW 1 mph 5 mph 83% 0.00 in 0 W/m2
03:10 29.5 °F 25 °F 30.25 in NW 1 mph 3 mph 83% 0.00 in 0 W/m2
03:20 29 °F 24.4 °F 30.25 in West 3 mph 6 mph 83% 0.00 in 0 W/m2
03:30 29.3 °F 25.4 °F 30.24 in WSW 2 mph 5 mph 85% 0.00 in 0 W/m2
03:40 29.3 °F 25.1 °F 30.25 in West 2 mph 4 mph 84% 0.00 in 0 W/m2
03:50 28.9 °F 25 °F 30.25 in NNW 3 mph 5 mph 85% 0.00 in 0 W/m2
04:00 28.8 °F 24.5 °F 30.25 in Calm   5 mph 84% 0.00 in 0 W/m2
04:10 28.2 °F 24 °F 30.26 in NNW 2 mph 3 mph 84% 0.00 in 0 W/m2
04:20 28.4 °F 24.5 °F 30.25 in NNW 1 mph 5 mph 85% 0.00 in 0 W/m2
04:30 28.8 °F 25.1 °F 30.25 in NW 3 mph 8 mph 86% 0.00 in 0 W/m2
04:40 28.9 °F 24.7 °F 30.25 in NE 6 mph 10 mph 84% 0.00 in 0 W/m2
04:50 29.1 °F 24.6 °F 30.25 in ENE 5 mph 9 mph 83% 0.00 in 0 W/m2
05:00 29.3 °F 24.8 °F 30.25 in NNE 1 mph 7 mph 83% 0.00 in 0 W/m2
05:10 29.5 °F 25 °F 30.26 in NNE 3 mph 5 mph 83% 0.00 in 0 W/m2
05:20 30.2 °F 25.7 °F 30.26 in NE 2 mph 6 mph 83% 0.00 in 0 W/m2
05:30 30.6 °F 25.4 °F 30.26 in NE 5 mph 7 mph 81% 0.00 in 0 W/m2
05:40 31.1 °F 26.5 °F 30.27 in SE 2 mph 9 mph 83% 0.00 in 0 W/m2
05:50 31.5 °F 26.9 °F 30.27 in SW 2 mph 7 mph 83% 0.00 in 0 W/m2
06:00 31.8 °F 26.7 °F 30.27 in SSW 1 mph 5 mph 81% 0.00 in 0 W/m2
06:10 32 °F 26.8 °F 30.27 in SSW 5 mph 8 mph 81% 0.00 in 0 W/m2
06:20 32 °F 26.5 °F 30.27 in SSE 2 mph 6 mph 80% 0.00 in 0 W/m2
06:30 32 °F 26.5 °F 30.27 in SSW 2 mph 10 mph 80% 0.00 in 0 W/m2
06:40 32.2 °F 26.7 °F 30.27 in SW 5 mph 9 mph 80% 0.00 in 0 W/m2
06:50 32.4 °F 27.2 °F 30.27 in SW 6 mph 10 mph 81% 0.00 in 0 W/m2
07:00 32.2 °F 27 °F 30.27 in West 6 mph 9 mph 81% 0.00 in 3 W/m2
07:10 32.2 °F 27 °F 30.27 in WSW 5 mph 9 mph 81% 0.00 in 8 W/m2
07:20 32.2 °F 27.6 °F 30.28 in WSW 6 mph 12 mph 83% 0.00 in 12 W/m2
07:30 32.4 °F 27.8 °F 30.28 in WSW 6 mph 10 mph 83% 0.00 in 22 W/m2
07:40 32.7 °F 28.1 °F 30.28 in SW 2 mph 10 mph 83% 0.00 in 28 W/m2
07:50 32.5 °F 28 °F 30.29 in WSW 5 mph 12 mph 83% 0.00 in 40 W/m2
08:00 32.9 °F 28.3 °F 30.29 in WSW 2 mph 8 mph 83% 0.00 in 53 W/m2
08:10 33.1 °F 28.5 °F 30.29 in WNW 2 mph 6 mph 83% 0.00 in 52 W/m2
08:20 33.3 °F 28.7 °F 30.29 in NNW 1 mph 4 mph 83% 0.00 in 33 W/m2
08:30 33.3 °F 28.7 °F 30.29 in WSW 1 mph 3 mph 83% 0.00 in 31 W/m2
08:40 33.4 °F 29.1 °F 30.28 in WSW 2 mph 5 mph 84% 0.00 in 52 W/m2
08:50 33.6 °F 29.3 °F 30.28 in WSW 3 mph 8 mph 84% 0.00 in 65 W/m2
09:00 33.8 °F 29.2 °F 30.31 in SW 5 mph 7 mph 83% 0.00 in 72 W/m2
09:10 34 °F 29.4 °F 30.31 in WSW 3 mph 7 mph 83% 0.00 in 76 W/m2
09:20 34.2 °F 29.5 °F 30.28 in WSW 3 mph 6 mph 83% 0.00 in 71 W/m2
09:30 34.3 °F 29.7 °F 30.28 in WSW 5 mph 10 mph 83% 0.00 in 105 W/m2
09:40 34.9 °F 30.2 °F 30.33 in WSW 6 mph 10 mph 83% 0.00 in 116 W/m2
09:50 35.2 °F 30 °F 30.31 in SW 6 mph 10 mph 81% 0.00 in 74 W/m2
10:00 35.6 °F 30.4 °F 30.29 in SW 3 mph 8 mph 81% 0.00 in 303 W/m2
10:10 37 °F 31.8 °F 30.28 in SW 5 mph 8 mph 81% 0.00 in 219 W/m2
10:20 38.3 °F 32.4 °F 30.27 in SW 5 mph 7 mph 79% 0.00 in 328 W/m2
10:30 39.6 °F 33.3 °F 30.27 in SW 5 mph 9 mph 78% 0.00 in 338 W/m2
10:40 40.3 °F 33.6 °F 30.27 in SSW 2 mph 8 mph 77% 0.00 in 347 W/m2
10:50 41.4 °F 34 °F 30.27 in SW 2 mph 6 mph 75% 0.00 in 355 W/m2
11:00 42.4 °F 34.7 °F 30.27 in SW 5 mph 7 mph 74% 0.00 in 361 W/m2
11:10 43.2 °F 34.7 °F 30.27 in SW 6 mph 13 mph 72% 0.00 in 366 W/m2
11:20 43.5 °F 34.4 °F 30.26 in SW 7 mph 13 mph 70% 0.00 in 369 W/m2
11:30 43.5 °F 34.4 °F 30.26 in SW 7 mph 13 mph 70% 0.00 in 371 W/m2
11:40 43.7 °F 34.2 °F 30.26 in SW 8 mph 15 mph 69% 0.00 in 371 W/m2
11:50 44.3 °F 34.7 °F 30.25 in SW 7 mph 12 mph 69% 0.00 in 370 W/m2
12:00 44.4 °F 34.5 °F 30.24 in SW 10 mph 14 mph 68% 0.00 in 368 W/m2
12:10 45.1 °F 34.8 °F 30.24 in SW 7 mph 11 mph 67% 0.00 in 312 W/m2
12:20 45.3 °F 35 °F 30.24 in SW 9 mph 17 mph 67% 0.00 in 359 W/m2
12:30 45.5 °F 34.4 °F 30.24 in SW 8 mph 13 mph 65% 0.00 in 352 W/m2
12:40 45.3 °F 34.2 °F 30.22 in SW 9 mph 16 mph 65% 0.00 in 344 W/m2
12:50 45.7 °F 34.6 °F 30.23 in WSW 10 mph 15 mph 65% 0.00 in 334 W/m2
13:00 45.5 °F 34 °F 30.22 in WSW 9 mph 16 mph 64% 0.00 in 324 W/m2
13:10 46 °F 34.5 °F 30.22 in SW 5 mph 15 mph 64% 0.00 in 312 W/m2
13:20 46.4 °F 34.1 °F 30.22 in WSW 6 mph 13 mph 62% 0.00 in 298 W/m2
13:30 46.4 °F 34.1 °F 30.22 in WSW 7 mph 15 mph 62% 0.00 in 284 W/m2
13:40 46.6 °F 33.4 °F 30.21 in WSW 8 mph 15 mph 60% 0.00 in 268 W/m2
13:50 46.8 °F 33.6 °F 30.20 in WSW 8 mph 14 mph 60% 0.00 in 252 W/m2
14:00 46.4 °F 34.1 °F 30.19 in WSW 7 mph 10 mph 62% 0.00 in 234 W/m2
14:10 46.4 °F 34.1 °F 30.18 in SW 6 mph 11 mph 62% 0.00 in 216 W/m2
14:20 46 °F 33.7 °F 30.18 in SW 8 mph 13 mph 62% 0.00 in 197 W/m2
14:30 45.9 °F 33.6 °F 30.17 in SW 8 mph 13 mph 62% 0.00 in 177 W/m2
14:40 45.5 °F 33.6 °F 30.16 in SW 9 mph 15 mph 63% 0.00 in 157 W/m2
14:50 45.1 °F 33.3 °F 30.17 in SW 9 mph 18 mph 63% 0.00 in 137 W/m2
15:00 45 °F 33.1 °F 30.16 in SW 9 mph 13 mph 63% 0.00 in 116 W/m2
15:10 44.8 °F 32.9 °F 30.16 in SW 8 mph 14 mph 63% 0.00 in 70 W/m2
15:20 44.2 °F 32.8 °F 30.16 in SW 6 mph 14 mph 64% 0.00 in 49 W/m2
15:30 43.9 °F 32.5 °F 30.16 in SW 9 mph 14 mph 64% 0.00 in 33 W/m2
15:40 43.3 °F 32 °F 30.16 in SW 8 mph 13 mph 64% 0.00 in 27 W/m2
15:50 43 °F 31.6 °F 30.16 in SW 8 mph 14 mph 64% 0.00 in 22 W/m2
16:00 42.8 °F 31.8 °F 30.15 in SW 8 mph 15 mph 65% 0.00 in 7 W/m2
16:10 42.6 °F 31.7 °F 30.14 in SW 6 mph 11 mph 65% 0.00 in 16 W/m2
16:20 42.3 °F 31.3 °F 30.13 in SW 7 mph 14 mph 65% 0.00 in 6 W/m2
16:30 42.1 °F 31.2 °F 30.13 in SW 7 mph 17 mph 65% 0.00 in 0 W/m2
16:40 42.1 °F 31.2 °F 30.13 in SW 8 mph 15 mph 65% 0.00 in 0 W/m2
16:50 41.9 °F 31 °F 30.14 in WSW 5 mph 15 mph 65% 0.00 in 0 W/m2
17:00 41.9 °F 31 °F 30.14 in SW 7 mph 13 mph 65% 0.00 in 0 W/m2
17:10 41.7 °F 31.6 °F 30.13 in SW 5 mph 10 mph 67% 0.00 in 0 W/m2
17:20 41.5 °F 31.4 °F 30.13 in WSW 6 mph 11 mph 67% 0.00 in 0 W/m2
17:30 41.4 °F 31.2 °F 30.13 in SW 6 mph 15 mph 67% 0.00 in 0 W/m2
17:40 41.2 °F 31 °F 30.12 in SW 5 mph 9 mph 67% 0.00 in 0 W/m2
17:50 41.2 °F 31 °F 30.12 in SW 3 mph 8 mph 67% 0.00 in 0 W/m2
18:00 41.2 °F 31 °F 30.13 in WSW 5 mph 13 mph 67% 0.00 in 0 W/m2
18:10 41.4 °F 31.2 °F 30.12 in WSW 8 mph 13 mph 67% 0.00 in 0 W/m2
18:20 41.4 °F 30.5 °F 30.12 in SW 7 mph 15 mph 65% 0.00 in 0 W/m2
18:30 41.4 °F 31.2 °F 30.13 in SW 3 mph 9 mph 67% 0.00 in 0 W/m2
18:40 41.2 °F 31 °F 30.13 in WSW 5 mph 8 mph 67% 0.00 in 0 W/m2
18:50 40.9 °F 30.7 °F 30.13 in West 2 mph 6 mph 67% 0.00 in 0 W/m2
19:00 40.6 °F 30.5 °F 30.14 in West 3 mph 8 mph 67% 0.00 in 0 W/m2
19:10 40.6 °F 30.5 °F 30.14 in SW 5 mph 11 mph 67% 0.00 in 0 W/m2
19:20 40.8 °F 30.7 °F 30.14 in WSW 5 mph 9 mph 67% 0.00 in 0 W/m2
19:30 41.4 °F 32 °F 30.14 in WSW 8 mph 21 mph 69% 0.00 in 0 W/m2
19:40 42.3 °F 32.8 °F 30.13 in WSW 10 mph 15 mph 69% 0.00 in 0 W/m2
19:50 42.4 °F 33 °F 30.13 in SW 9 mph 17 mph 69% 0.00 in 0 W/m2
20:00 42.4 °F 33 °F 30.13 in SW 9 mph 15 mph 69% 0.00 in 0 W/m2
20:10 42.8 °F 33.3 °F 30.13 in SW 5 mph 16 mph 69% 0.00 in 0 W/m2
20:20 42.8 °F 33 °F 30.13 in WSW 8 mph 14 mph 68% 0.00 in 0 W/m2
20:30 43.1 °F 33.3 °F 30.14 in West 8 mph 16 mph 68% 0.00 in 0 W/m2
20:40 43 °F 33.5 °F 30.15 in WSW 8 mph 15 mph 69% 0.00 in 0 W/m2
20:50 42.6 °F 34.9 °F 30.15 in West 9 mph 17 mph 74% 0.00 in 0 W/m2
21:00 42.1 °F 35.1 °F 30.16 in West 8 mph 13 mph 76% 0.00 in 0 W/m2
21:10 41.7 °F 35.7 °F 30.17 in WSW 9 mph 15 mph 79% 0.00 in 0 W/m2
21:20 41.1 °F 36.1 °F 30.17 in WSW 7 mph 14 mph 82% 0.00 in 0 W/m2
21:30 40.6 °F 36.2 °F 30.17 in WSW 8 mph 12 mph 84% 0.00 in 0 W/m2
21:40 40.1 °F 36.2 °F 30.17 in WSW 6 mph 14 mph 86% 0.00 in 0 W/m2
21:50 39.7 °F 36.5 °F 30.17 in WSW 5 mph 12 mph 88% 0.00 in 0 W/m2
22:10 39.2 °F 36.5 °F 30.17 in WSW 6 mph 9 mph 90% 0.00 in 0 W/m2
22:20 39 °F 36.6 °F 30.17 in WSW 6 mph 8 mph 91% 0.00 in 0 W/m2
22:30 38.6 °F 36.2 °F 30.17 in WSW 6 mph 10 mph 91% 0.03 in 0 W/m2
22:40 38.3 °F 36.5 °F 30.17 in SW 6 mph 10 mph 93% 0.00 in 0 W/m2
22:50 38.1 °F 36.3 °F 30.18 in WSW 5 mph 8 mph 93% 0.00 in 0 W/m2
23:00 37.9 °F 36.1 °F 30.17 in SW 3 mph 7 mph 93% 0.00 in 0 W/m2
23:10 38.1 °F 36.3 °F 30.18 in SW 3 mph 8 mph 93% 0.00 in 0 W/m2
23:20 38.2 °F 36.6 °F 30.18 in WSW 5 mph 7 mph 94% 0.00 in 0 W/m2
23:30 38.3 °F 36.7 °F 30.18 in WSW 3 mph 6 mph 94% 0.00 in 0 W/m2
23:40 38.5 °F 36.9 °F 30.18 in WSW 3 mph 6 mph 94% 0.00 in 0 W/m2
23:50 38.5 °F 36.6 °F 30.18 in WSW 2 mph 7 mph 93% 0.00 in 0 W/m2
Knjazevac, Serbia
Compliments of Weather Underground - 2 mb